createdAt,value
2018-11-05T00:00:41.244Z,1005.06
2018-11-05T00:02:34.748Z,1004.97
2018-11-05T00:03:34.591Z,1004.93
2018-11-05T00:05:27.593Z,1004.91
2018-11-05T00:06:27.450Z,1004.84
2018-11-05T00:08:20.846Z,1004.80
2018-11-05T00:09:20.818Z,1004.82
2018-11-05T00:11:13.856Z,1004.78
2018-11-05T00:12:13.742Z,1004.77
2018-11-05T00:14:07.072Z,1004.78
2018-11-05T00:15:07.044Z,1004.83
2018-11-05T00:17:00.660Z,1004.83
2018-11-05T00:18:00.396Z,1004.86
2018-11-05T00:19:53.359Z,1004.79
2018-11-05T00:20:53.284Z,1004.72
2018-11-05T00:22:46.655Z,1004.69
2018-11-05T00:23:46.636Z,1004.65
2018-11-05T00:25:40.585Z,1004.62
2018-11-05T00:26:39.984Z,1004.59
2018-11-05T00:28:32.921Z,1004.59
2018-11-05T00:29:33.013Z,1004.62
2018-11-05T00:31:26.251Z,1004.61
2018-11-05T00:32:26.196Z,1004.61
2018-11-05T00:34:19.724Z,1004.58
2018-11-05T00:35:19.563Z,1004.59
2018-11-05T00:37:12.563Z,1004.58
2018-11-05T00:38:12.433Z,1004.60
2018-11-05T00:40:05.817Z,1004.58
2018-11-05T00:41:05.764Z,1004.60
2018-11-05T00:42:58.831Z,1004.55
2018-11-05T00:43:58.675Z,1004.52
2018-11-05T00:45:52.186Z,1004.48
2018-11-05T00:46:52.028Z,1004.51
2018-11-05T00:48:45.389Z,1004.53
2018-11-05T00:49:45.349Z,1004.52
2018-11-05T00:51:38.935Z,1004.50
2018-11-05T00:52:38.727Z,1004.54
2018-11-05T00:54:32.222Z,1004.52
2018-11-05T00:55:32.099Z,1004.49
2018-11-05T00:57:26.500Z,1004.50
2018-11-05T00:58:25.452Z,1004.51
2018-11-05T01:00:19.042Z,1004.55
2018-11-05T01:01:19.164Z,1004.58
2018-11-05T01:03:12.356Z,1004.54
2018-11-05T01:04:12.313Z,1004.57
2018-11-05T01:06:06.273Z,1004.52
2018-11-05T01:07:05.687Z,1004.53
2018-11-05T01:08:58.557Z,1004.54
2018-11-05T01:09:58.556Z,1004.56
2018-11-05T01:11:51.738Z,1004.58
2018-11-05T01:12:51.402Z,1004.60
2018-11-05T01:14:44.364Z,1004.52
2018-11-05T01:15:44.263Z,1004.52
2018-11-05T01:17:37.671Z,1004.50
2018-11-05T01:18:37.637Z,1004.46
2018-11-05T01:20:30.550Z,1004.43
2018-11-05T01:21:30.795Z,1004.46
2018-11-05T01:23:23.942Z,1004.44
2018-11-05T01:24:23.870Z,1004.41
2018-11-05T01:26:17.333Z,1004.38
2018-11-05T01:27:17.255Z,1004.36
2018-11-05T01:29:10.173Z,1004.34
2018-11-05T01:30:10.139Z,1004.39
2018-11-05T01:32:03.509Z,1004.30
2018-11-05T01:33:03.476Z,1004.37
2018-11-05T01:34:56.899Z,1004.32
2018-11-05T01:35:56.821Z,1004.32
2018-11-05T01:37:50.426Z,1004.26
2018-11-05T01:38:50.197Z,1004.26
2018-11-05T01:40:43.705Z,1004.20
2018-11-05T01:41:43.634Z,1004.20
2018-11-05T01:43:37.297Z,1004.14
2018-11-05T01:44:37.036Z,1004.13
2018-11-05T01:46:30.433Z,1004.10
2018-11-05T01:47:29.862Z,1004.09
2018-11-05T01:49:23.020Z,1004.07
2018-11-05T01:50:22.816Z,1004.04
2018-11-05T01:52:15.699Z,1004.08
2018-11-05T01:53:15.675Z,1004.10
2018-11-05T01:55:08.711Z,1004.14
2018-11-05T01:56:08.518Z,1004.11
2018-11-05T01:58:01.469Z,1004.11
2018-11-05T01:59:01.397Z,1004.08
2018-11-05T02:00:54.798Z,1004.05
2018-11-05T02:01:54.747Z,1004.03
2018-11-05T02:03:48.146Z,1004.04
2018-11-05T02:04:48.124Z,1004.04
2018-11-05T02:06:41.658Z,1004.03
2018-11-05T02:07:41.473Z,1004.01
2018-11-05T02:09:34.418Z,1003.93
2018-11-05T02:10:34.502Z,1003.91
2018-11-05T02:12:27.736Z,1003.93
2018-11-05T02:13:27.787Z,1003.91
2018-11-05T02:15:21.082Z,1003.87
2018-11-05T02:16:21.040Z,1003.86
2018-11-05T02:18:14.437Z,1003.94
2018-11-05T02:19:14.551Z,1003.88
2018-11-05T02:21:07.784Z,1003.94
2018-11-05T02:22:07.741Z,1003.91
2018-11-05T02:24:00.640Z,1003.89
2018-11-05T02:25:00.635Z,1003.86
2018-11-05T02:26:54.016Z,1003.86
2018-11-05T02:27:53.996Z,1003.87
2018-11-05T02:29:47.512Z,1003.89
2018-11-05T02:30:47.367Z,1003.90
2018-11-05T02:32:40.214Z,1003.86
2018-11-05T02:33:40.212Z,1003.83
2018-11-05T02:35:33.641Z,1003.74
2018-11-05T02:36:33.545Z,1003.71
2018-11-05T02:38:26.943Z,1003.68
2018-11-05T02:39:26.907Z,1003.72
2018-11-05T02:41:19.849Z,1003.71
2018-11-05T02:42:19.826Z,1003.77
2018-11-05T02:44:13.353Z,1003.75
2018-11-05T02:45:13.182Z,1003.78
2018-11-05T02:47:07.097Z,1003.74
2018-11-05T02:48:06.840Z,1003.77
2018-11-05T02:50:00.131Z,1003.78
2018-11-05T02:50:59.856Z,1003.73
2018-11-05T02:52:52.981Z,1003.73
2018-11-05T02:53:52.775Z,1003.68
2018-11-05T02:55:46.802Z,1003.65
2018-11-05T02:56:46.645Z,1003.65
2018-11-05T02:58:40.274Z,1003.58
2018-11-05T02:59:40.000Z,1003.57
2018-11-05T03:01:33.380Z,1003.56
2018-11-05T03:02:33.348Z,1003.55
2018-11-05T03:04:26.940Z,1003.60
2018-11-05T03:05:26.738Z,1003.55
2018-11-05T03:07:21.250Z,1003.53
2018-11-05T03:08:21.086Z,1003.53
2018-11-05T03:10:14.465Z,1003.55
2018-11-05T03:11:14.427Z,1003.56
2018-11-05T03:13:07.798Z,1003.57
2018-11-05T03:14:07.784Z,1003.62
2018-11-05T03:16:00.661Z,1003.50
2018-11-05T03:17:00.652Z,1003.50
2018-11-05T03:18:54.028Z,1003.41
2018-11-05T03:19:53.985Z,1003.38
2018-11-05T03:21:47.572Z,1003.36
2018-11-05T03:22:47.380Z,1003.39
2018-11-05T03:24:40.784Z,1003.42
2018-11-05T03:25:40.893Z,1003.43
2018-11-05T03:27:34.239Z,1003.40
2018-11-05T03:28:34.048Z,1003.34
2018-11-05T03:30:28.077Z,1003.31
2018-11-05T03:31:28.022Z,1003.28
2018-11-05T03:33:20.887Z,1003.30
2018-11-05T03:34:20.859Z,1003.29
2018-11-05T03:36:14.325Z,1003.32
2018-11-05T03:37:14.256Z,1003.33
2018-11-05T03:39:07.666Z,1003.31
2018-11-05T03:40:07.605Z,1003.36
2018-11-05T03:42:00.528Z,1003.31
2018-11-05T03:43:00.472Z,1003.36
2018-11-05T03:44:53.585Z,1003.36
2018-11-05T03:45:53.357Z,1003.35
2018-11-05T03:47:46.773Z,1003.40
2018-11-05T03:48:46.723Z,1003.39
2018-11-05T03:50:39.588Z,1003.40
2018-11-05T03:51:39.601Z,1003.48
2018-11-05T03:53:34.249Z,1003.51
2018-11-05T03:54:32.903Z,1003.47
2018-11-05T03:56:26.315Z,1003.46
2018-11-05T03:57:26.253Z,1003.44
2018-11-05T03:59:19.805Z,1003.50
2018-11-05T04:00:19.617Z,1003.49
2018-11-05T04:02:13.012Z,1003.52
2018-11-05T04:03:12.985Z,1003.51
2018-11-05T04:05:06.356Z,1003.58
2018-11-05T04:06:06.332Z,1003.51
2018-11-05T04:07:59.536Z,1003.58
2018-11-05T04:08:59.194Z,1003.59
2018-11-05T04:10:52.576Z,1003.55
2018-11-05T04:11:52.558Z,1003.59
2018-11-05T04:13:46.173Z,1003.56
2018-11-05T04:14:45.902Z,1003.56
2018-11-05T04:16:39.292Z,1003.51
2018-11-05T04:17:39.404Z,1003.46
2018-11-05T04:19:32.383Z,1003.45
2018-11-05T04:20:32.129Z,1003.43
2018-11-05T04:22:26.066Z,1003.39
2018-11-05T04:23:25.273Z,1003.39
2018-11-05T04:25:18.174Z,1003.40
2018-11-05T04:26:18.142Z,1003.42
2018-11-05T04:28:11.063Z,1003.39
2018-11-05T04:29:11.023Z,1003.35
2018-11-05T04:31:04.466Z,1003.34
2018-11-05T04:32:03.883Z,1003.34
2018-11-05T04:33:57.349Z,1003.34
2018-11-05T04:34:56.740Z,1003.28
2018-11-05T04:36:50.291Z,1003.32
2018-11-05T04:37:50.086Z,1003.28
2018-11-05T04:39:43.602Z,1003.23
2018-11-05T04:40:43.467Z,1003.22
2018-11-05T04:42:36.856Z,1003.26
2018-11-05T04:43:36.802Z,1003.24
2018-11-05T04:45:29.845Z,1003.24
2018-11-05T04:46:29.716Z,1003.22
2018-11-05T04:48:22.558Z,1003.22
2018-11-05T04:49:22.533Z,1003.21
2018-11-05T04:51:15.433Z,1003.21
2018-11-05T04:52:15.403Z,1003.22
2018-11-05T04:54:08.433Z,1003.22
2018-11-05T04:55:08.247Z,1003.21
2018-11-05T04:57:01.859Z,1003.21
2018-11-05T04:58:01.651Z,1003.22
2018-11-05T04:59:54.489Z,1003.17
2018-11-05T05:00:54.478Z,1003.19
2018-11-05T05:02:47.860Z,1003.20
2018-11-05T05:03:47.815Z,1003.17
2018-11-05T05:05:41.250Z,1003.16
2018-11-05T05:06:41.197Z,1003.14
2018-11-05T05:08:34.545Z,1003.03
2018-11-05T05:09:34.524Z,1003.04
2018-11-05T05:11:27.927Z,1003.01
2018-11-05T05:12:27.900Z,1002.96
2018-11-05T05:14:21.306Z,1002.93
2018-11-05T05:15:21.838Z,1002.91
2018-11-05T05:17:14.672Z,1002.87
2018-11-05T05:18:14.618Z,1002.91
2018-11-05T05:20:07.636Z,1002.86
2018-11-05T05:21:07.579Z,1002.88
2018-11-05T05:23:00.672Z,1002.96
2018-11-05T05:24:00.458Z,1002.96
2018-11-05T05:25:54.872Z,1002.99
2018-11-05T05:26:54.825Z,1003.02
2018-11-05T05:28:48.908Z,1003.06
2018-11-05T05:29:48.182Z,1003.06
2018-11-05T05:31:41.600Z,1003.15
2018-11-05T05:32:41.550Z,1003.14
2018-11-05T05:34:35.238Z,1003.14
2018-11-05T05:35:35.036Z,1003.21
2018-11-05T05:37:28.701Z,1003.20
2018-11-05T05:38:28.275Z,1003.24
2018-11-05T05:40:21.551Z,1003.20
2018-11-05T05:41:21.483Z,1003.24
2018-11-05T05:43:14.975Z,1003.29
2018-11-05T05:44:14.880Z,1003.26
2018-11-05T05:46:07.904Z,1003.22
2018-11-05T05:47:07.867Z,1003.26
2018-11-05T05:49:01.913Z,1003.25
2018-11-05T05:50:01.301Z,1003.20
2018-11-05T05:51:55.258Z,1003.22
2018-11-05T05:52:54.618Z,1003.16
2018-11-05T05:54:47.983Z,1003.14
2018-11-05T05:55:47.935Z,1003.17
2018-11-05T05:57:41.318Z,1003.13
2018-11-05T05:58:41.303Z,1003.17
2018-11-05T06:00:34.190Z,1003.17
2018-11-05T06:01:34.220Z,1003.17
2018-11-05T06:03:27.539Z,1003.13
2018-11-05T06:04:27.517Z,1003.20
2018-11-05T06:06:21.329Z,1003.19
2018-11-05T06:07:20.883Z,1003.19
2018-11-05T06:09:14.342Z,1003.21
2018-11-05T06:10:14.243Z,1003.15
2018-11-05T06:12:07.658Z,1003.16
2018-11-05T06:13:07.639Z,1003.18
2018-11-05T06:15:01.027Z,1003.14
2018-11-05T06:16:01.093Z,1003.11
2018-11-05T06:17:54.386Z,1003.16
2018-11-05T06:18:54.364Z,1003.09
2018-11-05T06:20:47.782Z,1003.14
2018-11-05T06:21:47.786Z,1003.18
2018-11-05T06:23:41.121Z,1003.21
2018-11-05T06:24:41.081Z,1003.18
2018-11-05T06:26:34.471Z,1003.17
2018-11-05T06:27:34.444Z,1003.20
2018-11-05T06:29:27.857Z,1003.21
2018-11-05T06:30:27.820Z,1003.15
2018-11-05T06:32:21.192Z,1003.19
2018-11-05T06:33:21.165Z,1003.20
2018-11-05T06:35:14.595Z,1003.20
2018-11-05T06:36:14.538Z,1003.21
2018-11-05T06:38:07.908Z,1003.18
2018-11-05T06:39:07.896Z,1003.13
2018-11-05T06:41:02.428Z,1003.07
2018-11-05T06:42:01.237Z,1003.06
2018-11-05T06:43:54.137Z,1003.06
2018-11-05T06:44:54.301Z,1003.11
2018-11-05T06:46:47.485Z,1003.14
2018-11-05T06:47:47.463Z,1003.12
2018-11-05T06:49:40.358Z,1003.24
2018-11-05T06:50:40.323Z,1003.25
2018-11-05T06:52:33.217Z,1003.27
2018-11-05T06:53:33.196Z,1003.25
2018-11-05T06:55:26.219Z,1003.20
2018-11-05T06:56:26.053Z,1003.24
2018-11-05T06:58:18.952Z,1003.23
2018-11-05T06:59:18.921Z,1003.20
2018-11-05T07:01:12.369Z,1003.26
2018-11-05T07:02:11.774Z,1003.31
2018-11-05T07:04:04.670Z,1003.35
2018-11-05T07:05:04.641Z,1003.42
2018-11-05T07:06:57.548Z,1003.35
2018-11-05T07:07:57.533Z,1003.34
2018-11-05T07:09:50.410Z,1003.36
2018-11-05T07:10:50.366Z,1003.36
2018-11-05T07:12:43.262Z,1003.37
2018-11-05T07:13:43.249Z,1003.36
2018-11-05T07:15:36.123Z,1003.42
2018-11-05T07:16:36.100Z,1003.42
2018-11-05T07:18:29.096Z,1003.38
2018-11-05T07:19:29.053Z,1003.38
2018-11-05T07:21:22.353Z,1003.34
2018-11-05T07:22:22.322Z,1003.31
2018-11-05T07:24:15.231Z,1003.25
2018-11-05T07:25:15.197Z,1003.21
2018-11-05T07:27:08.578Z,1003.16
2018-11-05T07:28:08.555Z,1003.14
2018-11-05T07:30:01.942Z,1003.15
2018-11-05T07:31:01.911Z,1003.14
2018-11-05T07:32:54.833Z,1003.17
2018-11-05T07:33:54.887Z,1003.25
2018-11-05T07:35:47.705Z,1003.22
2018-11-05T07:36:47.640Z,1003.20
2018-11-05T07:38:40.536Z,1003.19
2018-11-05T07:39:40.496Z,1003.20
2018-11-05T07:41:33.905Z,1003.25
2018-11-05T07:42:33.865Z,1003.26
2018-11-05T07:44:26.758Z,1003.32
2018-11-05T07:45:26.724Z,1003.35
2018-11-05T07:47:19.620Z,1003.35
2018-11-05T07:48:19.593Z,1003.37
2018-11-05T07:50:13.064Z,1003.33
2018-11-05T07:51:12.949Z,1003.31
2018-11-05T07:53:05.844Z,1003.31
2018-11-05T07:54:05.804Z,1003.28
2018-11-05T07:55:59.212Z,1003.18
2018-11-05T07:56:59.157Z,1003.25
2018-11-05T07:58:52.064Z,1003.27
2018-11-05T07:59:52.032Z,1003.26
2018-11-05T08:01:44.921Z,1003.29
2018-11-05T08:02:44.928Z,1003.30
2018-11-05T08:04:38.284Z,1003.27
2018-11-05T08:05:38.257Z,1003.25
2018-11-05T08:07:31.652Z,1003.28
2018-11-05T08:08:31.746Z,1003.26
2018-11-05T08:10:24.535Z,1003.26
2018-11-05T08:11:24.506Z,1003.20
2018-11-05T08:13:17.441Z,1003.11
2018-11-05T08:14:17.423Z,1003.10
2018-11-05T08:16:10.263Z,1003.10
2018-11-05T08:17:10.227Z,1003.09
2018-11-05T08:19:04.184Z,1003.13
2018-11-05T08:20:04.150Z,1003.18
2018-11-05T08:21:57.544Z,1003.19
2018-11-05T08:22:57.522Z,1003.19
2018-11-05T08:24:50.915Z,1003.19
2018-11-05T08:25:50.884Z,1003.14
2018-11-05T08:27:43.771Z,1003.09
2018-11-05T08:28:43.738Z,1003.11
2018-11-05T08:30:36.719Z,1003.08
2018-11-05T08:31:36.609Z,1003.12
2018-11-05T08:33:29.575Z,1003.12
2018-11-05T08:34:29.476Z,1003.13
2018-11-05T08:36:22.397Z,1003.06
2018-11-05T08:37:22.359Z,1003.16
2018-11-05T08:39:15.278Z,1003.13
2018-11-05T08:40:15.314Z,1003.06
2018-11-05T08:42:08.118Z,1003.03
2018-11-05T08:43:08.100Z,1003.04
2018-11-05T08:45:01.480Z,1002.98
2018-11-05T08:46:01.472Z,1003.00
2018-11-05T08:47:54.374Z,1003.02
2018-11-05T08:48:54.318Z,1002.98
2018-11-05T08:50:47.580Z,1003.08
2018-11-05T08:51:47.829Z,1003.04
2018-11-05T08:53:40.372Z,1003.04
2018-11-05T08:54:40.335Z,1002.98
2018-11-05T08:56:33.723Z,1002.93
2018-11-05T08:57:33.755Z,1002.91
2018-11-05T08:59:27.073Z,1002.89
2018-11-05T09:00:27.049Z,1002.87
2018-11-05T09:02:20.427Z,1002.85
2018-11-05T09:03:20.412Z,1002.89
2018-11-05T09:05:13.976Z,1002.81
2018-11-05T09:06:13.764Z,1002.79
2018-11-05T09:08:07.455Z,1002.71
2018-11-05T09:09:06.660Z,1002.73
2018-11-05T09:10:59.944Z,1002.75
2018-11-05T09:11:59.564Z,1002.78
2018-11-05T09:13:52.411Z,1002.78
2018-11-05T09:14:52.398Z,1002.83
2018-11-05T09:16:45.289Z,1002.86
2018-11-05T09:17:45.246Z,1002.86
2018-11-05T09:19:38.636Z,1002.84
2018-11-05T09:20:38.628Z,1002.77
2018-11-05T09:22:31.998Z,1002.80
2018-11-05T09:23:31.972Z,1002.87
2018-11-05T09:25:25.342Z,1002.87
2018-11-05T09:26:25.337Z,1002.84
2018-11-05T09:28:18.750Z,1002.82
2018-11-05T09:29:18.677Z,1002.85
2018-11-05T09:31:11.623Z,1002.80
2018-11-05T09:32:11.547Z,1002.76
2018-11-05T09:34:04.938Z,1002.81
2018-11-05T09:35:04.921Z,1002.75
2018-11-05T09:36:58.303Z,1002.81
2018-11-05T09:37:58.287Z,1002.82
2018-11-05T09:39:51.184Z,1002.91
2018-11-05T09:40:51.145Z,1002.98
2018-11-05T09:42:44.115Z,1003.06
2018-11-05T09:43:44.005Z,1003.14
2018-11-05T09:45:36.923Z,1003.06
2018-11-05T09:46:36.887Z,1003.01
2018-11-05T09:48:30.282Z,1003.00
2018-11-05T09:49:30.273Z,1003.00
2018-11-05T09:51:23.624Z,1002.99
2018-11-05T09:52:23.600Z,1003.02
2018-11-05T09:54:16.994Z,1003.03
2018-11-05T09:55:16.960Z,1003.05
2018-11-05T09:57:09.920Z,1002.98
2018-11-05T09:58:09.836Z,1003.02
2018-11-05T10:00:03.212Z,1002.91
2018-11-05T10:01:03.185Z,1002.95
2018-11-05T10:02:56.705Z,1002.94
2018-11-05T10:03:56.608Z,1002.90
2018-11-05T10:05:49.448Z,1002.97
2018-11-05T10:06:49.447Z,1002.93
2018-11-05T10:08:42.863Z,1003.01
2018-11-05T10:09:42.860Z,1003.02
2018-11-05T10:11:35.669Z,1002.91
2018-11-05T10:12:35.652Z,1002.84
2018-11-05T10:14:28.535Z,1002.85
2018-11-05T10:15:28.515Z,1002.86
2018-11-05T10:17:21.911Z,1002.85
2018-11-05T10:18:21.879Z,1002.82
2018-11-05T10:20:14.841Z,1002.81
2018-11-05T10:21:14.753Z,1002.89
2018-11-05T10:23:07.657Z,1002.89
2018-11-05T10:24:07.626Z,1002.86
2018-11-05T10:26:00.525Z,1002.76
2018-11-05T10:27:00.498Z,1002.76
2018-11-05T10:28:53.873Z,1002.72
2018-11-05T10:29:53.849Z,1002.79
2018-11-05T10:31:48.091Z,1002.78
2018-11-05T10:32:48.061Z,1002.78
2018-11-05T10:34:41.477Z,1002.75
2018-11-05T10:35:41.447Z,1002.75
2018-11-05T10:37:34.847Z,1002.75
2018-11-05T10:38:34.903Z,1002.72
2018-11-05T10:40:27.782Z,1002.69
2018-11-05T10:41:27.708Z,1002.74
2018-11-05T10:43:20.751Z,1002.63
2018-11-05T10:44:20.577Z,1002.61
2018-11-05T10:46:13.571Z,1002.61
2018-11-05T10:47:13.485Z,1002.68
2018-11-05T10:49:06.857Z,1002.61
2018-11-05T10:50:06.801Z,1002.65
2018-11-05T10:51:59.859Z,1002.61
2018-11-05T10:52:59.684Z,1002.62
2018-11-05T10:54:52.570Z,1002.53
2018-11-05T10:55:52.548Z,1002.55
2018-11-05T10:57:46.503Z,1002.50
2018-11-05T10:58:46.009Z,1002.46
2018-11-05T11:00:38.817Z,1002.43
2018-11-05T11:01:38.794Z,1002.51
2018-11-05T11:03:32.205Z,1002.53
2018-11-05T11:04:32.269Z,1002.47
2018-11-05T11:06:25.572Z,1002.52
2018-11-05T11:07:25.539Z,1002.53
2018-11-05T11:09:18.936Z,1002.59
2018-11-05T11:10:18.896Z,1002.56
2018-11-05T11:12:11.798Z,1002.49
2018-11-05T11:13:11.761Z,1002.47
2018-11-05T11:15:04.667Z,1002.41
2018-11-05T11:16:04.638Z,1002.35
2018-11-05T11:17:57.532Z,1002.27
2018-11-05T11:18:57.506Z,1002.24
2018-11-05T11:20:50.390Z,1002.31
2018-11-05T11:21:50.381Z,1002.31
2018-11-05T11:23:43.273Z,1002.32
2018-11-05T11:24:43.240Z,1002.33
2018-11-05T11:26:36.706Z,1002.32
2018-11-05T11:27:36.253Z,1002.30
2018-11-05T11:29:29.843Z,1002.30
2018-11-05T11:30:29.621Z,1002.30
2018-11-05T11:32:22.501Z,1002.35
2018-11-05T11:33:22.491Z,1002.31
2018-11-05T11:35:15.935Z,1002.34
2018-11-05T11:36:15.420Z,1002.40
2018-11-05T11:38:08.335Z,1002.30
2018-11-05T11:39:08.299Z,1002.36
2018-11-05T11:41:01.720Z,1002.34
2018-11-05T11:42:01.670Z,1002.37
2018-11-05T11:43:55.193Z,1002.34
2018-11-05T11:44:55.124Z,1002.28
2018-11-05T11:46:47.932Z,1002.30
2018-11-05T11:47:47.908Z,1002.28
2018-11-05T11:49:41.293Z,1002.19
2018-11-05T11:50:41.277Z,1002.18
2018-11-05T11:52:34.246Z,1002.20
2018-11-05T11:53:34.240Z,1002.12
2018-11-05T11:55:27.203Z,1002.14
2018-11-05T11:56:27.011Z,1002.13
2018-11-05T11:58:20.451Z,1002.05
2018-11-05T11:59:20.372Z,1002.02
2018-11-05T12:01:13.876Z,1002.02
2018-11-05T12:02:13.821Z,1002.01
2018-11-05T12:04:07.129Z,1002.01
2018-11-05T12:05:07.279Z,1001.93
2018-11-05T12:07:00.569Z,1002.02
2018-11-05T12:08:00.454Z,1002.01
2018-11-05T12:09:54.420Z,1001.96
2018-11-05T12:10:54.378Z,1001.96
2018-11-05T12:12:47.272Z,1001.98
2018-11-05T12:13:47.287Z,1001.96
2018-11-05T12:15:40.149Z,1001.93
2018-11-05T12:16:40.188Z,1001.91
2018-11-05T12:18:33.507Z,1001.87
2018-11-05T12:19:33.486Z,1001.77
2018-11-05T12:21:26.874Z,1001.75
2018-11-05T12:22:26.842Z,1001.73
2018-11-05T12:24:20.278Z,1001.76
2018-11-05T12:25:20.784Z,1001.84
2018-11-05T12:27:13.655Z,1001.91
2018-11-05T12:28:13.581Z,1001.86
2018-11-05T12:30:06.556Z,1001.89
2018-11-05T12:31:06.455Z,1001.85
2018-11-05T12:32:59.871Z,1001.83
2018-11-05T12:33:59.816Z,1001.82
2018-11-05T12:35:53.277Z,1001.82
2018-11-05T12:36:52.687Z,1001.78
2018-11-05T12:38:46.006Z,1001.78
2018-11-05T12:39:45.850Z,1001.82
2018-11-05T12:41:39.232Z,1001.80
2018-11-05T12:42:39.215Z,1001.73
2018-11-05T12:44:32.726Z,1001.81
2018-11-05T12:45:32.565Z,1001.79
2018-11-05T12:47:26.510Z,1001.81
2018-11-05T12:48:26.490Z,1001.78
2018-11-05T12:50:19.860Z,1001.76
2018-11-05T12:51:19.842Z,1001.77
2018-11-05T12:53:12.741Z,1001.85
2018-11-05T12:54:12.729Z,1001.79
2018-11-05T12:56:05.620Z,1001.78
2018-11-05T12:57:05.595Z,1001.73
2018-11-05T12:58:58.552Z,1001.70
2018-11-05T12:59:58.479Z,1001.67
2018-11-05T13:01:51.873Z,1001.66
2018-11-05T13:02:51.837Z,1001.68
2018-11-05T13:04:44.830Z,1001.65
2018-11-05T13:05:44.713Z,1001.67
2018-11-05T13:07:38.118Z,1001.68
2018-11-05T13:08:38.079Z,1001.66
2018-11-05T13:10:30.957Z,1001.63
2018-11-05T13:11:30.935Z,1001.56
2018-11-05T13:13:23.830Z,1001.60
2018-11-05T13:14:23.797Z,1001.55
2018-11-05T13:16:16.705Z,1001.55
2018-11-05T13:17:16.674Z,1001.58
2018-11-05T13:19:10.063Z,1001.55
2018-11-05T13:20:10.034Z,1001.55
2018-11-05T13:22:03.022Z,1001.59
2018-11-05T13:23:02.912Z,1001.54
2018-11-05T13:24:55.875Z,1001.57
2018-11-05T13:25:55.778Z,1001.49
2018-11-05T13:27:49.183Z,1001.55
2018-11-05T13:28:49.167Z,1001.46
2018-11-05T13:30:42.553Z,1001.41
2018-11-05T13:31:42.539Z,1001.40
2018-11-05T13:33:35.917Z,1001.39
2018-11-05T13:34:35.902Z,1001.36
2018-11-05T13:36:29.302Z,1001.36
2018-11-05T13:37:29.515Z,1001.32
2018-11-05T13:39:22.714Z,1001.31
2018-11-05T13:40:22.637Z,1001.31
2018-11-05T13:42:15.529Z,1001.34
2018-11-05T13:43:15.509Z,1001.34
2018-11-05T13:45:09.152Z,1001.39
2018-11-05T13:46:09.176Z,1001.41
2018-11-05T13:48:02.508Z,1001.41
2018-11-05T13:49:02.882Z,1001.43
2018-11-05T13:50:55.643Z,1001.37
2018-11-05T13:51:55.706Z,1001.34
2018-11-05T13:53:48.984Z,1001.28
2018-11-05T13:54:49.317Z,1001.28
2018-11-05T13:56:42.354Z,1001.24
2018-11-05T13:57:42.454Z,1001.25
2018-11-05T13:59:35.784Z,1001.23
2018-11-05T14:00:35.188Z,1001.19
2018-11-05T14:02:28.597Z,1001.24
2018-11-05T14:03:28.550Z,1001.20
2018-11-05T14:05:21.938Z,1001.16
2018-11-05T14:06:21.935Z,1001.16
2018-11-05T14:08:14.933Z,1001.12
2018-11-05T14:09:14.781Z,1001.13
2018-11-05T14:11:08.205Z,1001.12
2018-11-05T14:12:08.154Z,1001.10
2018-11-05T14:14:01.097Z,1001.02
2018-11-05T14:15:01.012Z,1001.05
2018-11-05T14:16:54.416Z,1001.08
2018-11-05T14:17:54.383Z,1001.08
2018-11-05T14:19:47.764Z,1001.03
2018-11-05T14:20:47.730Z,1001.06
2018-11-05T14:22:41.117Z,1001.05
2018-11-05T14:23:41.127Z,1001.04
2018-11-05T14:25:34.555Z,1001.03
2018-11-05T14:26:34.476Z,1001.04
2018-11-05T14:28:27.768Z,1001.04
2018-11-05T14:29:27.747Z,1001.06
2018-11-05T14:31:20.319Z,1001.02
2018-11-05T14:32:20.383Z,1001.04
2018-11-05T14:34:13.226Z,1000.99
2018-11-05T14:35:13.202Z,1000.98
2018-11-05T14:37:06.160Z,1000.97
2018-11-05T14:38:06.086Z,1001.00
2018-11-05T14:39:59.454Z,1000.99
2018-11-05T14:40:59.428Z,1001.01
2018-11-05T14:42:52.896Z,1001.04
2018-11-05T14:43:52.821Z,1001.03
2018-11-05T14:45:46.792Z,1001.06
2018-11-05T14:46:46.735Z,1001.11
2018-11-05T14:48:40.258Z,1001.10
2018-11-05T14:49:39.616Z,1001.14
2018-11-05T14:51:32.502Z,1001.13
2018-11-05T14:52:32.472Z,1001.11
2018-11-05T14:54:25.359Z,1001.11
2018-11-05T14:55:25.349Z,1001.13
2018-11-05T14:57:18.315Z,1001.18
2018-11-05T14:58:18.212Z,1001.12
2018-11-05T15:00:11.104Z,1001.14
2018-11-05T15:01:11.076Z,1001.11
2018-11-05T15:03:04.046Z,1001.18
2018-11-05T15:04:03.936Z,1001.19
2018-11-05T15:05:56.832Z,1001.23
2018-11-05T15:06:56.803Z,1001.25
2018-11-05T15:08:49.705Z,1001.24
2018-11-05T15:09:49.679Z,1001.25
2018-11-05T15:11:42.844Z,1001.27
2018-11-05T15:12:42.815Z,1001.25
2018-11-05T15:14:36.741Z,1001.27
2018-11-05T15:15:35.692Z,1001.27
2018-11-05T15:17:28.593Z,1001.25
2018-11-05T15:18:28.692Z,1001.25
2018-11-05T15:20:21.577Z,1001.23
2018-11-05T15:21:21.482Z,1001.23
2018-11-05T15:23:14.814Z,1001.22
2018-11-05T15:24:14.797Z,1001.18
2018-11-05T15:26:08.200Z,1001.16
2018-11-05T15:27:08.182Z,1001.21
2018-11-05T15:29:01.083Z,1001.12
2018-11-05T15:30:01.021Z,1001.15
2018-11-05T15:31:54.398Z,1001.17
2018-11-05T15:32:54.380Z,1001.13
2018-11-05T15:34:47.366Z,1001.09
2018-11-05T15:35:47.344Z,1001.12
2018-11-05T15:37:41.291Z,1001.11
2018-11-05T15:38:41.259Z,1001.09
2018-11-05T15:40:34.693Z,1001.11
2018-11-05T15:41:34.622Z,1001.08
2018-11-05T15:43:27.517Z,1001.12
2018-11-05T15:44:27.495Z,1001.13
2018-11-05T15:46:20.888Z,1001.14
2018-11-05T15:47:20.868Z,1001.13
2018-11-05T15:49:14.269Z,1001.16
2018-11-05T15:50:14.226Z,1001.15
2018-11-05T15:52:07.296Z,1001.16
2018-11-05T15:53:07.307Z,1001.16
2018-11-05T15:55:00.504Z,1001.12
2018-11-05T15:56:00.490Z,1001.12
2018-11-05T15:57:54.437Z,1001.11
2018-11-05T15:58:53.841Z,1001.11
2018-11-05T16:00:46.755Z,1001.13
2018-11-05T16:01:46.702Z,1001.14
2018-11-05T16:03:40.453Z,1001.15
2018-11-05T16:04:40.423Z,1001.16
2018-11-05T16:06:33.338Z,1001.18
2018-11-05T16:07:33.322Z,1001.18
2018-11-05T16:09:26.804Z,1001.20
2018-11-05T16:10:26.671Z,1001.21
2018-11-05T16:12:20.087Z,1001.24
2018-11-05T16:13:20.059Z,1001.28
2018-11-05T16:15:13.425Z,1001.29
2018-11-05T16:16:13.392Z,1001.28
2018-11-05T16:18:06.774Z,1001.25
2018-11-05T16:19:06.745Z,1001.27
2018-11-05T16:20:59.646Z,1001.28
2018-11-05T16:21:59.615Z,1001.31
2018-11-05T16:23:52.796Z,1001.29
2018-11-05T16:24:52.481Z,1001.27
2018-11-05T16:26:45.372Z,1001.27
2018-11-05T16:27:45.356Z,1001.24
2018-11-05T16:29:38.754Z,1001.21
2018-11-05T16:30:38.766Z,1001.21
2018-11-05T16:32:33.843Z,1001.24
2018-11-05T16:33:32.641Z,1001.20
2018-11-05T16:35:25.573Z,1001.24
2018-11-05T16:36:25.489Z,1001.24
2018-11-05T16:38:18.453Z,1001.25
2018-11-05T16:39:18.383Z,1001.26
2018-11-05T16:41:11.238Z,1001.30
2018-11-05T16:42:11.217Z,1001.25
2018-11-05T16:44:04.594Z,1001.26
2018-11-05T16:45:04.570Z,1001.28
2018-11-05T16:46:58.027Z,1001.28
2018-11-05T16:47:57.952Z,1001.25
2018-11-05T16:49:50.848Z,1001.30
2018-11-05T16:50:50.817Z,1001.31
2018-11-05T16:52:43.860Z,1001.39
2018-11-05T16:53:43.839Z,1001.40
2018-11-05T16:55:36.685Z,1001.42
2018-11-05T16:56:36.638Z,1001.39
2018-11-05T16:58:29.529Z,1001.37
2018-11-05T16:59:29.531Z,1001.36
2018-11-05T17:01:22.669Z,1001.37
2018-11-05T17:02:22.759Z,1001.35
2018-11-05T17:04:15.748Z,1001.37
2018-11-05T17:05:15.716Z,1001.37
2018-11-05T17:07:08.613Z,1001.36
2018-11-05T17:08:08.575Z,1001.38
2018-11-05T17:10:01.976Z,1001.36
2018-11-05T17:11:01.974Z,1001.35
2018-11-05T17:12:54.845Z,1001.28
2018-11-05T17:13:54.908Z,1001.29
2018-11-05T17:15:48.240Z,1001.32
2018-11-05T17:16:48.176Z,1001.34
2018-11-05T17:18:41.145Z,1001.33
2018-11-05T17:19:41.041Z,1001.33
2018-11-05T17:21:33.929Z,1001.35
2018-11-05T17:22:33.906Z,1001.34
2018-11-05T17:24:26.796Z,1001.31
2018-11-05T17:25:26.773Z,1001.36
2018-11-05T17:27:20.161Z,1001.36